sensor_id;sensor_type;location;lat;lon;timestamp;P1;durP1;ratioP1;P2;durP2;ratioP2
39858;SDS011;25528;47.810;12.960;2022-08-05T00:01:39;5.47;;;4.00;;
39858;SDS011;25528;47.810;12.960;2022-08-05T00:04:05;4.05;;;3.65;;
39858;SDS011;25528;47.810;12.960;2022-08-05T00:06:30;4.37;;;3.50;;
39858;SDS011;25528;47.810;12.960;2022-08-05T00:08:56;4.20;;;3.80;;
39858;SDS011;25528;47.810;12.960;2022-08-05T00:11:22;4.28;;;3.83;;
39858;SDS011;25528;47.810;12.960;2022-08-05T00:13:48;4.10;;;3.70;;
39858;SDS011;25528;47.810;12.960;2022-08-05T00:16:14;4.55;;;3.70;;
39858;SDS011;25528;47.810;12.960;2022-08-05T00:18:44;4.40;;;4.00;;
39858;SDS011;25528;47.810;12.960;2022-08-05T00:21:11;4.60;;;3.83;;
39858;SDS011;25528;47.810;12.960;2022-08-05T00:23:38;3.97;;;3.57;;
39858;SDS011;25528;47.810;12.960;2022-08-05T00:26:05;4.68;;;3.70;;
39858;SDS011;25528;47.810;12.960;2022-08-05T00:28:32;4.30;;;3.90;;
39858;SDS011;25528;47.810;12.960;2022-08-05T00:30:58;4.40;;;4.00;;
39858;SDS011;25528;47.810;12.960;2022-08-05T00:33:26;4.45;;;4.05;;
39858;SDS011;25528;47.810;12.960;2022-08-05T00:35:51;4.57;;;4.07;;
39858;SDS011;25528;47.810;12.960;2022-08-05T00:38:17;4.15;;;3.70;;
39858;SDS011;25528;47.810;12.960;2022-08-05T00:40:46;3.85;;;3.50;;
39858;SDS011;25528;47.810;12.960;2022-08-05T00:43:14;4.10;;;3.80;;
39858;SDS011;25528;47.810;12.960;2022-08-05T00:45:43;4.20;;;3.80;;
39858;SDS011;25528;47.810;12.960;2022-08-05T00:48:13;4.30;;;3.90;;
39858;SDS011;25528;47.810;12.960;2022-08-05T00:50:41;4.28;;;3.80;;
39858;SDS011;25528;47.810;12.960;2022-08-05T00:53:08;6.20;;;3.95;;
39858;SDS011;25528;47.810;12.960;2022-08-05T00:55:33;4.70;;;3.83;;
39858;SDS011;25528;47.810;12.960;2022-08-05T00:57:59;4.00;;;3.60;;
39858;SDS011;25528;47.810;12.960;2022-08-05T01:00:26;4.00;;;3.60;;
39858;SDS011;25528;47.810;12.960;2022-08-05T01:02:52;4.70;;;3.58;;
39858;SDS011;25528;47.810;12.960;2022-08-05T01:05:18;4.15;;;3.75;;
39858;SDS011;25528;47.810;12.960;2022-08-05T01:07:44;4.10;;;3.70;;
39858;SDS011;25528;47.810;12.960;2022-08-05T01:10:10;4.05;;;3.60;;
39858;SDS011;25528;47.810;12.960;2022-08-05T01:12:39;4.90;;;3.70;;
39858;SDS011;25528;47.810;12.960;2022-08-05T01:15:11;4.95;;;3.90;;
39858;SDS011;25528;47.810;12.960;2022-08-05T01:20:22;4.65;;;3.67;;
39858;SDS011;25528;47.810;12.960;2022-08-05T01:23:15;4.60;;;4.20;;
39858;SDS011;25528;47.810;12.960;2022-08-05T01:28:36;4.28;;;3.88;;
39858;SDS011;25528;47.810;12.960;2022-08-05T01:31:08;4.20;;;3.80;;
39858;SDS011;25528;47.810;12.960;2022-08-05T01:34:04;4.30;;;3.90;;
39858;SDS011;25528;47.810;12.960;2022-08-05T01:36:34;4.10;;;3.67;;
39858;SDS011;25528;47.810;12.960;2022-08-05T01:39:03;4.00;;;3.60;;
39858;SDS011;25528;47.810;12.960;2022-08-05T01:41:30;3.92;;;3.55;;
39858;SDS011;25528;47.810;12.960;2022-08-05T01:43:59;4.13;;;3.67;;
39858;SDS011;25528;47.810;12.960;2022-08-05T01:46:26;4.20;;;3.78;;
39858;SDS011;25528;47.810;12.960;2022-08-05T01:48:54;4.30;;;3.90;;
39858;SDS011;25528;47.810;12.960;2022-08-05T01:51:22;4.53;;;3.70;;
39858;SDS011;25528;47.810;12.960;2022-08-05T01:53:50;4.10;;;3.70;;
39858;SDS011;25528;47.810;12.960;2022-08-05T01:56:18;4.03;;;3.60;;
39858;SDS011;25528;47.810;12.960;2022-08-05T01:58:45;4.88;;;4.20;;
39858;SDS011;25528;47.810;12.960;2022-08-05T02:01:14;4.47;;;4.07;;
39858;SDS011;25528;47.810;12.960;2022-08-05T02:03:44;4.50;;;4.10;;
39858;SDS011;25528;47.810;12.960;2022-08-05T02:06:12;4.35;;;3.95;;
39858;SDS011;25528;47.810;12.960;2022-08-05T02:08:38;4.20;;;3.80;;
39858;SDS011;25528;47.810;12.960;2022-08-05T02:11:06;4.38;;;3.80;;
39858;SDS011;25528;47.810;12.960;2022-08-05T02:16:27;4.50;;;3.83;;
39858;SDS011;25528;47.810;12.960;2022-08-05T02:19:00;4.32;;;3.80;;
39858;SDS011;25528;47.810;12.960;2022-08-05T02:21:33;5.47;;;4.00;;
39858;SDS011;25528;47.810;12.960;2022-08-05T02:24:04;4.87;;;4.00;;
39858;SDS011;25528;47.810;12.960;2022-08-05T02:26:55;5.13;;;4.00;;
39858;SDS011;25528;47.810;12.960;2022-08-05T02:29:22;4.93;;;4.20;;
39858;SDS011;25528;47.810;12.960;2022-08-05T02:31:50;4.35;;;3.95;;
39858;SDS011;25528;47.810;12.960;2022-08-05T02:34:18;5.22;;;3.90;;
39858;SDS011;25528;47.810;12.960;2022-08-05T02:36:49;4.55;;;3.90;;
39858;SDS011;25528;47.810;12.960;2022-08-05T02:39:18;4.35;;;3.95;;
39858;SDS011;25528;47.810;12.960;2022-08-05T02:41:46;4.40;;;4.00;;
39858;SDS011;25528;47.810;12.960;2022-08-05T02:44:12;4.03;;;3.63;;
39858;SDS011;25528;47.810;12.960;2022-08-05T02:46:40;4.13;;;3.72;;
39858;SDS011;25528;47.810;12.960;2022-08-05T02:49:07;4.38;;;3.97;;
39858;SDS011;25528;47.810;12.960;2022-08-05T02:51:35;4.40;;;3.92;;
39858;SDS011;25528;47.810;12.960;2022-08-05T02:54:04;5.07;;;4.25;;
39858;SDS011;25528;47.810;12.960;2022-08-05T02:56:31;5.15;;;3.83;;
39858;SDS011;25528;47.810;12.960;2022-08-05T03:02:25;4.28;;;3.88;;
39858;SDS011;25528;47.810;12.960;2022-08-05T03:04:56;4.30;;;3.90;;
39858;SDS011;25528;47.810;12.960;2022-08-05T03:07:23;5.15;;;4.00;;
39858;SDS011;25528;47.810;12.960;2022-08-05T03:09:50;6.63;;;3.97;;
39858;SDS011;25528;47.810;12.960;2022-08-05T03:12:32;9.23;;;4.15;;
39858;SDS011;25528;47.810;12.960;2022-08-05T03:15:00;11.07;;;4.50;;
39858;SDS011;25528;47.810;12.960;2022-08-05T03:17:26;18.35;;;5.78;;
39858;SDS011;25528;47.810;12.960;2022-08-05T03:19:51;12.70;;;6.60;;
39858;SDS011;25528;47.810;12.960;2022-08-05T03:22:17;15.77;;;6.00;;
39858;SDS011;25528;47.810;12.960;2022-08-05T03:24:43;17.90;;;5.60;;
39858;SDS011;25528;47.810;12.960;2022-08-05T03:27:10;11.68;;;5.28;;
39858;SDS011;25528;47.810;12.960;2022-08-05T03:29:37;7.82;;;4.90;;
39858;SDS011;25528;47.810;12.960;2022-08-05T03:32:05;10.05;;;4.60;;
39858;SDS011;25528;47.810;12.960;2022-08-05T03:34:34;9.02;;;4.57;;
39858;SDS011;25528;47.810;12.960;2022-08-05T03:37:02;6.70;;;4.25;;
39858;SDS011;25528;47.810;12.960;2022-08-05T03:39:29;6.90;;;4.50;;
39858;SDS011;25528;47.810;12.960;2022-08-05T03:41:55;13.25;;;4.50;;
39858;SDS011;25528;47.810;12.960;2022-08-05T03:44:21;17.00;;;4.77;;
39858;SDS011;25528;47.810;12.960;2022-08-05T03:46:47;18.70;;;5.18;;
39858;SDS011;25528;47.810;12.960;2022-08-05T03:49:12;15.40;;;4.73;;
39858;SDS011;25528;47.810;12.960;2022-08-05T03:51:39;16.23;;;4.97;;
39858;SDS011;25528;47.810;12.960;2022-08-05T03:54:20;16.02;;;4.47;;
39858;SDS011;25528;47.810;12.960;2022-08-05T03:57:03;11.00;;;4.70;;
39858;SDS011;25528;47.810;12.960;2022-08-05T03:59:32;11.40;;;4.60;;
39858;SDS011;25528;47.810;12.960;2022-08-05T04:02:01;24.55;;;5.40;;
39858;SDS011;25528;47.810;12.960;2022-08-05T04:04:28;13.48;;;5.13;;
39858;SDS011;25528;47.810;12.960;2022-08-05T04:06:55;13.65;;;5.00;;
39858;SDS011;25528;47.810;12.960;2022-08-05T04:09:23;11.40;;;5.03;;
39858;SDS011;25528;47.810;12.960;2022-08-05T04:11:49;9.48;;;5.00;;
39858;SDS011;25528;47.810;12.960;2022-08-05T04:14:15;10.65;;;5.00;;
39858;SDS011;25528;47.810;12.960;2022-08-05T04:16:42;16.45;;;4.93;;
39858;SDS011;25528;47.810;12.960;2022-08-05T04:19:11;8.75;;;4.88;;
39858;SDS011;25528;47.810;12.960;2022-08-05T04:21:37;8.75;;;5.00;;
39858;SDS011;25528;47.810;12.960;2022-08-05T04:24:03;14.20;;;5.22;;
39858;SDS011;25528;47.810;12.960;2022-08-05T04:26:29;12.10;;;5.30;;
39858;SDS011;25528;47.810;12.960;2022-08-05T04:28:55;11.60;;;5.17;;
39858;SDS011;25528;47.810;12.960;2022-08-05T04:31:21;13.18;;;5.30;;
39858;SDS011;25528;47.810;12.960;2022-08-05T04:33:46;11.13;;;5.23;;
39858;SDS011;25528;47.810;12.960;2022-08-05T04:36:13;9.32;;;5.15;;
39858;SDS011;25528;47.810;12.960;2022-08-05T04:38:39;9.23;;;5.20;;
39858;SDS011;25528;47.810;12.960;2022-08-05T04:41:07;8.37;;;5.23;;
39858;SDS011;25528;47.810;12.960;2022-08-05T04:43:32;8.15;;;5.10;;
39858;SDS011;25528;47.810;12.960;2022-08-05T04:45:58;7.83;;;5.37;;
39858;SDS011;25528;47.810;12.960;2022-08-05T04:48:24;8.60;;;4.90;;
39858;SDS011;25528;47.810;12.960;2022-08-05T04:50:50;8.13;;;5.27;;
39858;SDS011;25528;47.810;12.960;2022-08-05T04:53:16;8.53;;;4.93;;
39858;SDS011;25528;47.810;12.960;2022-08-05T04:55:42;7.07;;;5.03;;
39858;SDS011;25528;47.810;12.960;2022-08-05T04:58:10;8.30;;;4.78;;
39858;SDS011;25528;47.810;12.960;2022-08-05T05:00:37;6.60;;;4.95;;
39858;SDS011;25528;47.810;12.960;2022-08-05T05:03:04;9.25;;;5.45;;
39858;SDS011;25528;47.810;12.960;2022-08-05T05:05:31;13.02;;;5.35;;
39858;SDS011;25528;47.810;12.960;2022-08-05T05:08:01;8.52;;;5.20;;
39858;SDS011;25528;47.810;12.960;2022-08-05T05:10:31;9.02;;;5.32;;
39858;SDS011;25528;47.810;12.960;2022-08-05T05:13:06;10.68;;;5.20;;
39858;SDS011;25528;47.810;12.960;2022-08-05T05:15:32;7.20;;;4.60;;
39858;SDS011;25528;47.810;12.960;2022-08-05T05:17:58;10.27;;;4.93;;
39858;SDS011;25528;47.810;12.960;2022-08-05T05:20:24;10.37;;;5.10;;
39858;SDS011;25528;47.810;12.960;2022-08-05T05:22:49;8.88;;;5.20;;
39858;SDS011;25528;47.810;12.960;2022-08-05T05:25:15;8.43;;;4.83;;
39858;SDS011;25528;47.810;12.960;2022-08-05T05:27:41;8.33;;;4.77;;
39858;SDS011;25528;47.810;12.960;2022-08-05T05:30:06;7.68;;;5.22;;
39858;SDS011;25528;47.810;12.960;2022-08-05T05:32:33;8.68;;;4.72;;
39858;SDS011;25528;47.810;12.960;2022-08-05T05:34:58;9.13;;;4.90;;
39858;SDS011;25528;47.810;12.960;2022-08-05T05:37:24;8.38;;;5.07;;
39858;SDS011;25528;47.810;12.960;2022-08-05T05:39:49;6.80;;;4.68;;
39858;SDS011;25528;47.810;12.960;2022-08-05T05:42:15;8.37;;;5.13;;
39858;SDS011;25528;47.810;12.960;2022-08-05T05:44:41;6.32;;;4.93;;
39858;SDS011;25528;47.810;12.960;2022-08-05T05:47:06;7.07;;;4.80;;
39858;SDS011;25528;47.810;12.960;2022-08-05T05:49:32;7.27;;;4.93;;
39858;SDS011;25528;47.810;12.960;2022-08-05T05:51:58;7.50;;;4.70;;
39858;SDS011;25528;47.810;12.960;2022-08-05T05:54:24;6.93;;;4.65;;
39858;SDS011;25528;47.810;12.960;2022-08-05T05:56:49;5.93;;;4.63;;
39858;SDS011;25528;47.810;12.960;2022-08-05T05:59:15;6.20;;;4.47;;
39858;SDS011;25528;47.810;12.960;2022-08-05T06:01:41;5.50;;;4.60;;
39858;SDS011;25528;47.810;12.960;2022-08-05T06:04:07;6.28;;;4.63;;
39858;SDS011;25528;47.810;12.960;2022-08-05T06:06:35;5.28;;;4.47;;
39858;SDS011;25528;47.810;12.960;2022-08-05T06:09:02;6.68;;;4.50;;
39858;SDS011;25528;47.810;12.960;2022-08-05T06:11:29;5.32;;;4.35;;
39858;SDS011;25528;47.810;12.960;2022-08-05T06:13:55;4.68;;;4.15;;
39858;SDS011;25528;47.810;12.960;2022-08-05T06:16:21;5.10;;;4.23;;
39858;SDS011;25528;47.810;12.960;2022-08-05T06:18:47;4.82;;;4.20;;
39858;SDS011;25528;47.810;12.960;2022-08-05T06:21:13;5.00;;;4.10;;
39858;SDS011;25528;47.810;12.960;2022-08-05T06:23:38;5.43;;;4.43;;
39858;SDS011;25528;47.810;12.960;2022-08-05T06:26:04;6.10;;;4.10;;
39858;SDS011;25528;47.810;12.960;2022-08-05T06:28:29;4.77;;;4.20;;
39858;SDS011;25528;47.810;12.960;2022-08-05T06:30:55;5.13;;;4.50;;
39858;SDS011;25528;47.810;12.960;2022-08-05T06:33:21;5.00;;;4.40;;
39858;SDS011;25528;47.810;12.960;2022-08-05T06:35:46;4.90;;;4.50;;
39858;SDS011;25528;47.810;12.960;2022-08-05T06:38:12;4.95;;;4.38;;
39858;SDS011;25528;47.810;12.960;2022-08-05T06:40:38;5.82;;;4.70;;
39858;SDS011;25528;47.810;12.960;2022-08-05T06:43:06;4.85;;;4.35;;
39858;SDS011;25528;47.810;12.960;2022-08-05T06:45:31;4.73;;;4.30;;
39858;SDS011;25528;47.810;12.960;2022-08-05T06:47:57;4.72;;;4.22;;
39858;SDS011;25528;47.810;12.960;2022-08-05T06:50:23;4.88;;;4.47;;
39858;SDS011;25528;47.810;12.960;2022-08-05T06:52:50;5.38;;;4.43;;
39858;SDS011;25528;47.810;12.960;2022-08-05T06:55:16;5.00;;;4.50;;
39858;SDS011;25528;47.810;12.960;2022-08-05T06:57:41;5.57;;;4.60;;
39858;SDS011;25528;47.810;12.960;2022-08-05T07:00:08;4.97;;;4.40;;
39858;SDS011;25528;47.810;12.960;2022-08-05T07:02:43;5.43;;;4.70;;
39858;SDS011;25528;47.810;12.960;2022-08-05T07:05:10;5.13;;;4.13;;
39858;SDS011;25528;47.810;12.960;2022-08-05T07:07:37;6.40;;;4.53;;
39858;SDS011;25528;47.810;12.960;2022-08-05T07:10:03;7.05;;;4.43;;
39858;SDS011;25528;47.810;12.960;2022-08-05T07:12:30;5.53;;;4.20;;
39858;SDS011;25528;47.810;12.960;2022-08-05T07:15:14;5.05;;;4.30;;
39858;SDS011;25528;47.810;12.960;2022-08-05T07:17:58;5.00;;;4.00;;
39858;SDS011;25528;47.810;12.960;2022-08-05T07:20:23;4.85;;;4.30;;
39858;SDS011;25528;47.810;12.960;2022-08-05T07:22:49;5.67;;;4.37;;
39858;SDS011;25528;47.810;12.960;2022-08-05T07:25:14;5.70;;;4.47;;
39858;SDS011;25528;47.810;12.960;2022-08-05T07:27:40;4.90;;;4.40;;
39858;SDS011;25528;47.810;12.960;2022-08-05T07:30:06;5.35;;;4.43;;
39858;SDS011;25528;47.810;12.960;2022-08-05T07:32:36;4.90;;;4.40;;
39858;SDS011;25528;47.810;12.960;2022-08-05T07:35:20;4.80;;;4.30;;
39858;SDS011;25528;47.810;12.960;2022-08-05T07:37:46;6.70;;;4.22;;
39858;SDS011;25528;47.810;12.960;2022-08-05T07:40:11;6.30;;;4.32;;
39858;SDS011;25528;47.810;12.960;2022-08-05T07:42:37;11.00;;;4.63;;
39858;SDS011;25528;47.810;12.960;2022-08-05T07:45:03;6.73;;;4.53;;
39858;SDS011;25528;47.810;12.960;2022-08-05T07:47:29;6.88;;;4.28;;
39858;SDS011;25528;47.810;12.960;2022-08-05T07:49:54;5.40;;;4.57;;
39858;SDS011;25528;47.810;12.960;2022-08-05T07:52:20;6.07;;;4.65;;
39858;SDS011;25528;47.810;12.960;2022-08-05T07:54:46;6.32;;;4.90;;
39858;SDS011;25528;47.810;12.960;2022-08-05T07:57:12;5.68;;;4.50;;
39858;SDS011;25528;47.810;12.960;2022-08-05T07:59:37;6.38;;;4.50;;
39858;SDS011;25528;47.810;12.960;2022-08-05T08:02:03;5.33;;;4.60;;
39858;SDS011;25528;47.810;12.960;2022-08-05T08:04:29;5.85;;;4.70;;
39858;SDS011;25528;47.810;12.960;2022-08-05T08:06:54;5.20;;;4.40;;
39858;SDS011;25528;47.810;12.960;2022-08-05T08:09:20;5.47;;;4.30;;
39858;SDS011;25528;47.810;12.960;2022-08-05T08:11:48;5.55;;;4.38;;
39858;SDS011;25528;47.810;12.960;2022-08-05T08:14:14;5.00;;;4.50;;
39858;SDS011;25528;47.810;12.960;2022-08-05T08:16:39;5.90;;;4.80;;
39858;SDS011;25528;47.810;12.960;2022-08-05T08:19:05;5.53;;;4.80;;
39858;SDS011;25528;47.810;12.960;2022-08-05T08:21:32;6.15;;;4.60;;
39858;SDS011;25528;47.810;12.960;2022-08-05T08:23:58;5.10;;;4.60;;
39858;SDS011;25528;47.810;12.960;2022-08-05T08:26:23;6.07;;;4.77;;
39858;SDS011;25528;47.810;12.960;2022-08-05T08:28:49;4.70;;;4.30;;
39858;SDS011;25528;47.810;12.960;2022-08-05T08:31:14;5.05;;;4.50;;
39858;SDS011;25528;47.810;12.960;2022-08-05T08:33:40;5.20;;;4.70;;
39858;SDS011;25528;47.810;12.960;2022-08-05T08:36:06;5.47;;;4.60;;
39858;SDS011;25528;47.810;12.960;2022-08-05T08:38:32;4.90;;;4.50;;
39858;SDS011;25528;47.810;12.960;2022-08-05T08:40:57;4.68;;;4.28;;
39858;SDS011;25528;47.810;12.960;2022-08-05T08:43:25;5.80;;;4.60;;
39858;SDS011;25528;47.810;12.960;2022-08-05T08:45:52;4.82;;;4.43;;
39858;SDS011;25528;47.810;12.960;2022-08-05T08:48:19;4.95;;;4.55;;
39858;SDS011;25528;47.810;12.960;2022-08-05T08:50:45;5.30;;;4.60;;
39858;SDS011;25528;47.810;12.960;2022-08-05T08:53:11;4.97;;;4.47;;
39858;SDS011;25528;47.810;12.960;2022-08-05T08:55:40;4.80;;;4.40;;
39858;SDS011;25528;47.810;12.960;2022-08-05T08:58:07;4.97;;;4.57;;
39858;SDS011;25528;47.810;12.960;2022-08-05T09:00:34;4.82;;;4.38;;
39858;SDS011;25528;47.810;12.960;2022-08-05T09:03:00;5.05;;;4.57;;
39858;SDS011;25528;47.810;12.960;2022-08-05T09:05:29;4.80;;;4.40;;
39858;SDS011;25528;47.810;12.960;2022-08-05T09:07:55;4.73;;;4.30;;
39858;SDS011;25528;47.810;12.960;2022-08-05T09:10:20;4.60;;;4.20;;
39858;SDS011;25528;47.810;12.960;2022-08-05T09:12:46;4.90;;;4.50;;
39858;SDS011;25528;47.810;12.960;2022-08-05T09:15:12;5.10;;;4.60;;
39858;SDS011;25528;47.810;12.960;2022-08-05T09:17:39;4.65;;;4.25;;
39858;SDS011;25528;47.810;12.960;2022-08-05T09:20:05;4.60;;;4.20;;
39858;SDS011;25528;47.810;12.960;2022-08-05T09:25:41;4.75;;;4.35;;
39858;SDS011;25528;47.810;12.960;2022-08-05T09:28:29;5.28;;;4.78;;
39858;SDS011;25528;47.810;12.960;2022-08-05T09:30:56;6.70;;;4.47;;
39858;SDS011;25528;47.810;12.960;2022-08-05T09:33:28;6.35;;;4.47;;
39858;SDS011;25528;47.810;12.960;2022-08-05T09:35:55;5.45;;;4.43;;
39858;SDS011;25528;47.810;12.960;2022-08-05T09:38:28;4.80;;;4.30;;
39858;SDS011;25528;47.810;12.960;2022-08-05T09:41:02;4.78;;;4.30;;
39858;SDS011;25528;47.810;12.960;2022-08-05T09:43:34;4.97;;;4.50;;
39858;SDS011;25528;47.810;12.960;2022-08-05T09:46:02;5.20;;;4.20;;
39858;SDS011;25528;47.810;12.960;2022-08-05T09:48:31;6.93;;;4.47;;
39858;SDS011;25528;47.810;12.960;2022-08-05T09:51:05;6.67;;;4.93;;
39858;SDS011;25528;47.810;12.960;2022-08-05T09:53:45;9.05;;;6.30;;
39858;SDS011;25528;47.810;12.960;2022-08-05T09:56:12;9.13;;;5.70;;
39858;SDS011;25528;47.810;12.960;2022-08-05T09:58:38;11.70;;;5.33;;
39858;SDS011;25528;47.810;12.960;2022-08-05T10:01:05;9.95;;;5.10;;
39858;SDS011;25528;47.810;12.960;2022-08-05T10:03:32;8.38;;;5.25;;
39858;SDS011;25528;47.810;12.960;2022-08-05T10:06:08;6.93;;;4.80;;
39858;SDS011;25528;47.810;12.960;2022-08-05T10:08:35;6.60;;;4.43;;
39858;SDS011;25528;47.810;12.960;2022-08-05T10:11:12;9.70;;;4.65;;
39858;SDS011;25528;47.810;12.960;2022-08-05T10:13:39;11.90;;;4.65;;
39858;SDS011;25528;47.810;12.960;2022-08-05T10:16:06;7.53;;;4.78;;
39858;SDS011;25528;47.810;12.960;2022-08-05T10:18:51;6.57;;;4.63;;
39858;SDS011;25528;47.810;12.960;2022-08-05T10:21:17;5.38;;;4.65;;
39858;SDS011;25528;47.810;12.960;2022-08-05T10:23:43;6.60;;;4.50;;
39858;SDS011;25528;47.810;12.960;2022-08-05T10:26:10;6.20;;;4.50;;
39858;SDS011;25528;47.810;12.960;2022-08-05T10:28:36;5.28;;;4.55;;
39858;SDS011;25528;47.810;12.960;2022-08-05T10:31:02;6.22;;;4.40;;
39858;SDS011;25528;47.810;12.960;2022-08-05T10:33:29;4.90;;;4.40;;
39858;SDS011;25528;47.810;12.960;2022-08-05T10:35:56;5.70;;;4.60;;
39858;SDS011;25528;47.810;12.960;2022-08-05T10:38:24;5.15;;;4.35;;
39858;SDS011;25528;47.810;12.960;2022-08-05T10:46:43;5.10;;;4.53;;
39858;SDS011;25528;47.810;12.960;2022-08-05T10:49:10;14.02;;;5.22;;
39858;SDS011;25528;47.810;12.960;2022-08-05T10:51:43;8.98;;;4.65;;
39858;SDS011;25528;47.810;12.960;2022-08-05T10:54:11;7.90;;;4.65;;
39858;SDS011;25528;47.810;12.960;2022-08-05T10:56:45;12.57;;;4.97;;
39858;SDS011;25528;47.810;12.960;2022-08-05T10:59:24;15.57;;;5.30;;
39858;SDS011;25528;47.810;12.960;2022-08-05T11:04:43;7.57;;;4.68;;
39858;SDS011;25528;47.810;12.960;2022-08-05T11:07:10;6.13;;;4.32;;
39858;SDS011;25528;47.810;12.960;2022-08-05T11:15:07;10.25;;;5.20;;
39858;SDS011;25528;47.810;12.960;2022-08-05T11:17:40;7.78;;;4.68;;
39858;SDS011;25528;47.810;12.960;2022-08-05T11:28:43;37.38;;;33.97;;
39858;SDS011;25528;47.810;12.960;2022-08-05T11:33:37;31.38;;;28.63;;
39858;SDS011;25528;47.810;12.960;2022-08-05T11:36:17;29.45;;;26.67;;
39858;SDS011;25528;47.810;12.960;2022-08-05T11:41:15;29.08;;;26.33;;
39858;SDS011;25528;47.810;12.960;2022-08-05T11:44:02;28.42;;;25.80;;
39858;SDS011;25528;47.810;12.960;2022-08-05T11:46:35;27.98;;;25.13;;
39858;SDS011;25528;47.810;12.960;2022-08-05T11:49:05;27.48;;;24.88;;
39858;SDS011;25528;47.810;12.960;2022-08-05T11:51:32;31.70;;;28.30;;
39858;SDS011;25528;47.810;12.960;2022-08-05T11:53:58;29.42;;;26.27;;
39858;SDS011;25528;47.810;12.960;2022-08-05T11:56:25;25.98;;;23.42;;
39858;SDS011;25528;47.810;12.960;2022-08-05T11:59:14;25.85;;;22.30;;
39858;SDS011;25528;47.810;12.960;2022-08-05T12:04:20;26.52;;;23.77;;
39858;SDS011;25528;47.810;12.960;2022-08-05T12:06:46;32.90;;;29.45;;
39858;SDS011;25528;47.810;12.960;2022-08-05T12:09:12;31.83;;;28.60;;
39858;SDS011;25528;47.810;12.960;2022-08-05T12:11:42;30.02;;;27.10;;
39858;SDS011;25528;47.810;12.960;2022-08-05T12:14:09;28.40;;;25.35;;
39858;SDS011;25528;47.810;12.960;2022-08-05T12:16:39;26.73;;;24.00;;
39858;SDS011;25528;47.810;12.960;2022-08-05T12:19:07;24.38;;;21.92;;
39858;SDS011;25528;47.810;12.960;2022-08-05T12:21:45;22.58;;;20.33;;
39858;SDS011;25528;47.810;12.960;2022-08-05T12:26:44;20.50;;;18.50;;
39858;SDS011;25528;47.810;12.960;2022-08-05T12:29:13;19.13;;;17.17;;
39858;SDS011;25528;47.810;12.960;2022-08-05T12:31:43;18.10;;;16.30;;
39858;SDS011;25528;47.810;12.960;2022-08-05T12:34:10;17.35;;;15.57;;
39858;SDS011;25528;47.810;12.960;2022-08-05T12:36:36;16.50;;;14.95;;
39858;SDS011;25528;47.810;12.960;2022-08-05T12:39:03;16.65;;;15.05;;
39858;SDS011;25528;47.810;12.960;2022-08-05T12:41:30;15.80;;;14.20;;
39858;SDS011;25528;47.810;12.960;2022-08-05T12:43:59;14.63;;;13.13;;
39858;SDS011;25528;47.810;12.960;2022-08-05T12:46:33;13.93;;;12.52;;
39858;SDS011;25528;47.810;12.960;2022-08-05T12:49:10;13.82;;;12.45;;
39858;SDS011;25528;47.810;12.960;2022-08-05T12:51:51;12.45;;;11.35;;
39858;SDS011;25528;47.810;12.960;2022-08-05T12:54:20;12.40;;;11.30;;
39858;SDS011;25528;47.810;12.960;2022-08-05T12:56:51;12.40;;;11.30;;
39858;SDS011;25528;47.810;12.960;2022-08-05T12:59:25;12.20;;;11.03;;
39858;SDS011;25528;47.810;12.960;2022-08-05T13:04:26;11.33;;;10.17;;
39858;SDS011;25528;47.810;12.960;2022-08-05T13:06:55;12.55;;;10.00;;
39858;SDS011;25528;47.810;12.960;2022-08-05T13:09:22;11.32;;;9.55;;
39858;SDS011;25528;47.810;12.960;2022-08-05T13:11:49;10.35;;;9.45;;
39858;SDS011;25528;47.810;12.960;2022-08-05T13:14:16;11.30;;;9.00;;
39858;SDS011;25528;47.810;12.960;2022-08-05T13:16:44;9.30;;;8.40;;
39858;SDS011;25528;47.810;12.960;2022-08-05T13:19:11;8.93;;;7.95;;
39858;SDS011;25528;47.810;12.960;2022-08-05T13:21:37;10.93;;;8.27;;
39858;SDS011;25528;47.810;12.960;2022-08-05T13:24:04;9.17;;;8.17;;
39858;SDS011;25528;47.810;12.960;2022-08-05T13:26:30;8.25;;;7.45;;
39858;SDS011;25528;47.810;12.960;2022-08-05T13:28:56;8.57;;;7.70;;
39858;SDS011;25528;47.810;12.960;2022-08-05T13:31:22;8.27;;;7.50;;
39858;SDS011;25528;47.810;12.960;2022-08-05T13:33:48;8.35;;;7.57;;
39858;SDS011;25528;47.810;12.960;2022-08-05T13:36:14;8.88;;;8.07;;
39858;SDS011;25528;47.810;12.960;2022-08-05T13:38:39;9.17;;;7.80;;
39858;SDS011;25528;47.810;12.960;2022-08-05T13:41:05;7.85;;;7.05;;
39858;SDS011;25528;47.810;12.960;2022-08-05T13:43:31;7.50;;;6.80;;
39858;SDS011;25528;47.810;12.960;2022-08-05T13:45:56;8.20;;;7.03;;
39858;SDS011;25528;47.810;12.960;2022-08-05T13:48:22;7.63;;;6.85;;
39858;SDS011;25528;47.810;12.960;2022-08-05T13:50:48;7.70;;;6.85;;
39858;SDS011;25528;47.810;12.960;2022-08-05T13:53:13;7.83;;;6.53;;
39858;SDS011;25528;47.810;12.960;2022-08-05T13:55:39;7.60;;;6.80;;
39858;SDS011;25528;47.810;12.960;2022-08-05T13:58:04;9.60;;;6.10;;
39858;SDS011;25528;47.810;12.960;2022-08-05T14:00:30;8.13;;;6.50;;
39858;SDS011;25528;47.810;12.960;2022-08-05T14:02:56;7.37;;;6.33;;
39858;SDS011;25528;47.810;12.960;2022-08-05T14:05:21;7.70;;;6.90;;
39858;SDS011;25528;47.810;12.960;2022-08-05T14:07:47;7.20;;;6.50;;
39858;SDS011;25528;47.810;12.960;2022-08-05T14:10:14;7.13;;;6.33;;
39858;SDS011;25528;47.810;12.960;2022-08-05T14:12:41;6.82;;;6.20;;
39858;SDS011;25528;47.810;12.960;2022-08-05T14:15:08;6.63;;;6.03;;
39858;SDS011;25528;47.810;12.960;2022-08-05T14:17:34;7.13;;;6.43;;
39858;SDS011;25528;47.810;12.960;2022-08-05T14:20:02;7.00;;;6.35;;
39858;SDS011;25528;47.810;12.960;2022-08-05T14:22:29;6.93;;;6.20;;
39858;SDS011;25528;47.810;12.960;2022-08-05T14:24:54;8.07;;;6.05;;
39858;SDS011;25528;47.810;12.960;2022-08-05T14:27:20;6.93;;;6.03;;
39858;SDS011;25528;47.810;12.960;2022-08-05T14:29:46;7.07;;;6.30;;
39858;SDS011;25528;47.810;12.960;2022-08-05T14:32:11;6.90;;;5.87;;
39858;SDS011;25528;47.810;12.960;2022-08-05T14:34:37;6.38;;;5.78;;
39858;SDS011;25528;47.810;12.960;2022-08-05T14:37:03;6.28;;;5.68;;
39858;SDS011;25528;47.810;12.960;2022-08-05T14:39:29;6.80;;;6.10;;
39858;SDS011;25528;47.810;12.960;2022-08-05T14:41:56;6.30;;;5.70;;
39858;SDS011;25528;47.810;12.960;2022-08-05T14:44:22;6.68;;;6.03;;
39858;SDS011;25528;47.810;12.960;2022-08-05T14:46:47;7.37;;;5.87;;
39858;SDS011;25528;47.810;12.960;2022-08-05T14:49:13;6.63;;;5.90;;
39858;SDS011;25528;47.810;12.960;2022-08-05T14:51:39;7.30;;;5.90;;
39858;SDS011;25528;47.810;12.960;2022-08-05T14:54:05;6.65;;;5.95;;
39858;SDS011;25528;47.810;12.960;2022-08-05T14:56:31;6.30;;;5.70;;
39858;SDS011;25528;47.810;12.960;2022-08-05T14:58:58;7.15;;;5.47;;
39858;SDS011;25528;47.810;12.960;2022-08-05T15:01:23;6.27;;;5.67;;
39858;SDS011;25528;47.810;12.960;2022-08-05T15:03:49;6.53;;;5.72;;
39858;SDS011;25528;47.810;12.960;2022-08-05T15:06:15;6.77;;;5.60;;
39858;SDS011;25528;47.810;12.960;2022-08-05T15:08:41;6.43;;;5.55;;
39858;SDS011;25528;47.810;12.960;2022-08-05T15:11:07;5.80;;;5.07;;
39858;SDS011;25528;47.810;12.960;2022-08-05T15:13:33;7.30;;;5.57;;
39858;SDS011;25528;47.810;12.960;2022-08-05T15:16:00;7.38;;;5.80;;
39858;SDS011;25528;47.810;12.960;2022-08-05T15:18:26;7.47;;;5.50;;
39858;SDS011;25528;47.810;12.960;2022-08-05T15:20:52;7.78;;;5.45;;
39858;SDS011;25528;47.810;12.960;2022-08-05T15:23:17;6.68;;;5.40;;
39858;SDS011;25528;47.810;12.960;2022-08-05T15:25:43;7.60;;;5.50;;